sensor_id;sensor_type;location;lat;lon;timestamp;temperature;humidity
9237;DHT22;24579;42.810;23.214;2022-08-03T00:01:03;18.00;99.90
9237;DHT22;24579;42.810;23.214;2022-08-03T00:03:32;18.00;99.90
9237;DHT22;24579;42.810;23.214;2022-08-03T00:05:59;18.00;99.90
9237;DHT22;24579;42.810;23.214;2022-08-03T00:08:26;17.90;99.90
9237;DHT22;24579;42.810;23.214;2022-08-03T00:10:53;17.80;99.90
9237;DHT22;24579;42.810;23.214;2022-08-03T00:13:20;17.80;99.90
9237;DHT22;24579;42.810;23.214;2022-08-03T00:15:47;17.80;99.90
9237;DHT22;24579;42.810;23.214;2022-08-03T00:18:14;17.70;99.90
9237;DHT22;24579;42.810;23.214;2022-08-03T00:20:42;17.80;99.90
9237;DHT22;24579;42.810;23.214;2022-08-03T00:23:10;17.70;99.90
9237;DHT22;24579;42.810;23.214;2022-08-03T00:25:37;17.80;99.90
9237;DHT22;24579;42.810;23.214;2022-08-03T00:28:04;17.80;99.90
9237;DHT22;24579;42.810;23.214;2022-08-03T00:30:32;17.70;99.90
9237;DHT22;24579;42.810;23.214;2022-08-03T00:32:59;17.70;99.90
9237;DHT22;24579;42.810;23.214;2022-08-03T00:35:28;17.70;99.90
9237;DHT22;24579;42.810;23.214;2022-08-03T00:37:57;17.60;99.90
9237;DHT22;24579;42.810;23.214;2022-08-03T00:40:24;17.50;99.90
9237;DHT22;24579;42.810;23.214;2022-08-03T00:42:53;17.50;99.90
9237;DHT22;24579;42.810;23.214;2022-08-03T00:45:22;17.50;99.90
9237;DHT22;24579;42.810;23.214;2022-08-03T00:47:50;17.50;99.90
9237;DHT22;24579;42.810;23.214;2022-08-03T00:50:18;17.60;99.90
9237;DHT22;24579;42.810;23.214;2022-08-03T00:52:48;17.60;99.90
9237;DHT22;24579;42.810;23.214;2022-08-03T00:55:16;17.60;99.90
9237;DHT22;24579;42.810;23.214;2022-08-03T00:57:45;17.50;99.90
9237;DHT22;24579;42.810;23.214;2022-08-03T01:00:14;17.50;99.90
9237;DHT22;24579;42.810;23.214;2022-08-03T01:02:41;17.40;99.90
9237;DHT22;24579;42.810;23.214;2022-08-03T01:05:09;17.40;99.90
9237;DHT22;24579;42.810;23.214;2022-08-03T01:07:55;17.30;99.90
9237;DHT22;24579;42.810;23.214;2022-08-03T01:10:33;17.40;99.90
9237;DHT22;24579;42.810;23.214;2022-08-03T01:13:07;17.30;99.90
9237;DHT22;24579;42.810;23.214;2022-08-03T01:15:43;17.30;99.90
9237;DHT22;24579;42.810;23.214;2022-08-03T01:18:15;17.30;99.90
9237;DHT22;24579;42.810;23.214;2022-08-03T01:20:46;17.20;99.90
9237;DHT22;24579;42.810;23.214;2022-08-03T01:23:40;17.20;99.90
9237;DHT22;24579;42.810;23.214;2022-08-03T01:32:14;17.20;99.90
9237;DHT22;24579;42.810;23.214;2022-08-03T01:34:46;17.10;99.90
9237;DHT22;24579;42.810;23.214;2022-08-03T01:37:16;16.90;99.90
9237;DHT22;24579;42.810;23.214;2022-08-03T01:39:47;16.60;99.90
9237;DHT22;24579;42.810;23.214;2022-08-03T01:42:16;16.30;99.90
9237;DHT22;24579;42.810;23.214;2022-08-03T01:44:44;16.30;99.90
9237;DHT22;24579;42.810;23.214;2022-08-03T01:47:15;16.30;99.90
9237;DHT22;24579;42.810;23.214;2022-08-03T01:49:45;16.50;99.90
9237;DHT22;24579;42.810;23.214;2022-08-03T01:52:18;16.60;99.90
9237;DHT22;24579;42.810;23.214;2022-08-03T01:54:47;16.40;99.90
9237;DHT22;24579;42.810;23.214;2022-08-03T01:57:15;16.50;99.90
9237;DHT22;24579;42.810;23.214;2022-08-03T01:59:44;16.50;99.90
9237;DHT22;24579;42.810;23.214;2022-08-03T02:02:15;16.60;99.90
9237;DHT22;24579;42.810;23.214;2022-08-03T02:04:43;16.70;99.90
9237;DHT22;24579;42.810;23.214;2022-08-03T02:07:11;16.70;99.90
9237;DHT22;24579;42.810;23.214;2022-08-03T02:09:40;16.60;99.90
9237;DHT22;24579;42.810;23.214;2022-08-03T02:12:10;16.60;99.90
9237;DHT22;24579;42.810;23.214;2022-08-03T02:14:40;16.50;99.90
9237;DHT22;24579;42.810;23.214;2022-08-03T02:17:09;16.50;99.90
9237;DHT22;24579;42.810;23.214;2022-08-03T02:19:38;16.40;99.90
9237;DHT22;24579;42.810;23.214;2022-08-03T02:22:09;16.40;99.90
9237;DHT22;24579;42.810;23.214;2022-08-03T02:24:36;16.50;99.90
9237;DHT22;24579;42.810;23.214;2022-08-03T02:27:06;16.30;99.90
9237;DHT22;24579;42.810;23.214;2022-08-03T02:29:37;16.30;99.90
9237;DHT22;24579;42.810;23.214;2022-08-03T02:32:05;16.40;99.90
9237;DHT22;24579;42.810;23.214;2022-08-03T02:34:34;16.30;99.90
9237;DHT22;24579;42.810;23.214;2022-08-03T02:37:04;16.20;99.90
9237;DHT22;24579;42.810;23.214;2022-08-03T02:39:32;16.10;99.90
9237;DHT22;24579;42.810;23.214;2022-08-03T02:42:01;16.00;99.90
9237;DHT22;24579;42.810;23.214;2022-08-03T02:44:29;15.90;99.90
9237;DHT22;24579;42.810;23.214;2022-08-03T02:47:02;15.50;99.90
9237;DHT22;24579;42.810;23.214;2022-08-03T02:49:31;15.50;99.90
9237;DHT22;24579;42.810;23.214;2022-08-03T02:51:59;15.50;99.90
9237;DHT22;24579;42.810;23.214;2022-08-03T02:54:29;15.20;99.90
9237;DHT22;24579;42.810;23.214;2022-08-03T02:56:58;15.30;99.90
9237;DHT22;24579;42.810;23.214;2022-08-03T02:59:27;15.60;99.90
9237;DHT22;24579;42.810;23.214;2022-08-03T03:01:56;15.40;99.90
9237;DHT22;24579;42.810;23.214;2022-08-03T03:04:25;15.70;99.90
9237;DHT22;24579;42.810;23.214;2022-08-03T03:06:53;15.80;99.90
9237;DHT22;24579;42.810;23.214;2022-08-03T03:09:21;15.70;99.90
9237;DHT22;24579;42.810;23.214;2022-08-03T03:11:51;15.60;99.90
9237;DHT22;24579;42.810;23.214;2022-08-03T03:14:19;15.80;99.90
9237;DHT22;24579;42.810;23.214;2022-08-03T03:16:47;15.90;99.90
9237;DHT22;24579;42.810;23.214;2022-08-03T03:19:16;16.00;99.90
9237;DHT22;24579;42.810;23.214;2022-08-03T03:21:44;16.10;99.90
9237;DHT22;24579;42.810;23.214;2022-08-03T03:24:13;16.10;99.90
9237;DHT22;24579;42.810;23.214;2022-08-03T03:26:40;16.10;99.90
9237;DHT22;24579;42.810;23.214;2022-08-03T03:29:09;16.10;99.90
9237;DHT22;24579;42.810;23.214;2022-08-03T03:31:36;16.00;99.90
9237;DHT22;24579;42.810;23.214;2022-08-03T03:34:03;15.90;99.90
9237;DHT22;24579;42.810;23.214;2022-08-03T03:36:31;15.40;99.90
9237;DHT22;24579;42.810;23.214;2022-08-03T03:38:58;15.20;99.90
9237;DHT22;24579;42.810;23.214;2022-08-03T03:41:25;15.40;99.90
9237;DHT22;24579;42.810;23.214;2022-08-03T03:43:52;15.30;99.90
9237;DHT22;24579;42.810;23.214;2022-08-03T03:46:21;15.40;99.90
9237;DHT22;24579;42.810;23.214;2022-08-03T03:48:48;15.60;99.90
9237;DHT22;24579;42.810;23.214;2022-08-03T03:51:15;15.20;99.90
9237;DHT22;24579;42.810;23.214;2022-08-03T03:53:54;15.20;99.90
9237;DHT22;24579;42.810;23.214;2022-08-03T03:56:21;15.20;99.90
9237;DHT22;24579;42.810;23.214;2022-08-03T03:58:48;15.50;99.90
9237;DHT22;24579;42.810;23.214;2022-08-03T04:01:16;15.60;99.90
9237;DHT22;24579;42.810;23.214;2022-08-03T04:03:44;15.50;99.90
9237;DHT22;24579;42.810;23.214;2022-08-03T04:06:12;15.50;99.90
9237;DHT22;24579;42.810;23.214;2022-08-03T04:08:56;15.40;99.90
9237;DHT22;24579;42.810;23.214;2022-08-03T04:11:46;15.60;99.90
9237;DHT22;24579;42.810;23.214;2022-08-03T04:14:18;15.80;99.90
9237;DHT22;24579;42.810;23.214;2022-08-03T04:16:47;15.90;99.90
9237;DHT22;24579;42.810;23.214;2022-08-03T04:19:21;15.90;99.90
9237;DHT22;24579;42.810;23.214;2022-08-03T04:21:52;15.90;99.90
9237;DHT22;24579;42.810;23.214;2022-08-03T04:24:21;15.90;99.90
9237;DHT22;24579;42.810;23.214;2022-08-03T04:26:50;16.00;99.90
9237;DHT22;24579;42.810;23.214;2022-08-03T04:29:18;16.10;99.90
9237;DHT22;24579;42.810;23.214;2022-08-03T04:31:46;16.30;99.90
9237;DHT22;24579;42.810;23.214;2022-08-03T04:34:14;16.40;99.90
9237;DHT22;24579;42.810;23.214;2022-08-03T04:36:47;16.60;99.90
9237;DHT22;24579;42.810;23.214;2022-08-03T04:39:18;16.70;99.90
9237;DHT22;24579;42.810;23.214;2022-08-03T04:41:50;16.80;99.90
9237;DHT22;24579;42.810;23.214;2022-08-03T04:44:19;16.90;99.90
9237;DHT22;24579;42.810;23.214;2022-08-03T04:46:47;16.80;99.90
9237;DHT22;24579;42.810;23.214;2022-08-03T04:49:15;16.70;99.90
9237;DHT22;24579;42.810;23.214;2022-08-03T04:51:43;16.90;99.90
9237;DHT22;24579;42.810;23.214;2022-08-03T04:54:11;17.10;99.90
9237;DHT22;24579;42.810;23.214;2022-08-03T04:56:39;17.30;99.90
9237;DHT22;24579;42.810;23.214;2022-08-03T04:59:06;17.30;99.90
9237;DHT22;24579;42.810;23.214;2022-08-03T05:01:33;17.30;99.90
9237;DHT22;24579;42.810;23.214;2022-08-03T05:04:00;17.30;99.90
9237;DHT22;24579;42.810;23.214;2022-08-03T05:06:27;17.40;99.90
9237;DHT22;24579;42.810;23.214;2022-08-03T05:08:55;17.40;99.90
9237;DHT22;24579;42.810;23.214;2022-08-03T05:11:22;17.70;99.90
9237;DHT22;24579;42.810;23.214;2022-08-03T05:13:49;17.60;99.90
9237;DHT22;24579;42.810;23.214;2022-08-03T05:16:16;17.50;99.90
9237;DHT22;24579;42.810;23.214;2022-08-03T05:18:43;17.60;99.90
9237;DHT22;24579;42.810;23.214;2022-08-03T05:21:11;17.80;99.90
9237;DHT22;24579;42.810;23.214;2022-08-03T05:23:41;18.10;99.90
9237;DHT22;24579;42.810;23.214;2022-08-03T05:26:10;18.20;99.90
9237;DHT22;24579;42.810;23.214;2022-08-03T05:28:37;18.30;99.90
9237;DHT22;24579;42.810;23.214;2022-08-03T05:31:04;18.40;99.90
9237;DHT22;24579;42.810;23.214;2022-08-03T05:33:31;18.60;99.90
9237;DHT22;24579;42.810;23.214;2022-08-03T05:35:58;18.90;99.90
9237;DHT22;24579;42.810;23.214;2022-08-03T05:38:25;19.10;99.90
9237;DHT22;24579;42.810;23.214;2022-08-03T05:40:52;18.90;99.90
9237;DHT22;24579;42.810;23.214;2022-08-03T05:43:21;19.10;99.90
9237;DHT22;24579;42.810;23.214;2022-08-03T05:45:48;19.30;99.90
9237;DHT22;24579;42.810;23.214;2022-08-03T05:48:15;19.50;99.90
9237;DHT22;24579;42.810;23.214;2022-08-03T05:50:42;19.60;99.90
9237;DHT22;24579;42.810;23.214;2022-08-03T05:53:09;19.70;99.90
9237;DHT22;24579;42.810;23.214;2022-08-03T05:55:36;19.70;99.90
9237;DHT22;24579;42.810;23.214;2022-08-03T05:58:03;20.00;99.90
9237;DHT22;24579;42.810;23.214;2022-08-03T06:00:31;20.20;99.90
9237;DHT22;24579;42.810;23.214;2022-08-03T06:02:58;20.40;99.90
9237;DHT22;24579;42.810;23.214;2022-08-03T06:05:25;20.40;99.90
9237;DHT22;24579;42.810;23.214;2022-08-03T06:07:53;20.50;99.90
9237;DHT22;24579;42.810;23.214;2022-08-03T06:10:20;20.50;99.90
9237;DHT22;24579;42.810;23.214;2022-08-03T06:12:47;20.70;99.90
9237;DHT22;24579;42.810;23.214;2022-08-03T06:15:15;20.80;99.90
9237;DHT22;24579;42.810;23.214;2022-08-03T06:17:48;21.00;99.90
9237;DHT22;24579;42.810;23.214;2022-08-03T06:20:16;21.00;98.50
9237;DHT22;24579;42.810;23.214;2022-08-03T06:22:44;21.00;99.10
9237;DHT22;24579;42.810;23.214;2022-08-03T06:25:11;21.10;98.00
9237;DHT22;24579;42.810;23.214;2022-08-03T06:27:38;21.00;97.30
9237;DHT22;24579;42.810;23.214;2022-08-03T06:30:07;21.10;97.50
9237;DHT22;24579;42.810;23.214;2022-08-03T06:32:35;21.30;96.90
9237;DHT22;24579;42.810;23.214;2022-08-03T06:35:04;21.30;96.90
9237;DHT22;24579;42.810;23.214;2022-08-03T06:37:40;21.60;97.30
9237;DHT22;24579;42.810;23.214;2022-08-03T06:40:08;21.90;96.30
9237;DHT22;24579;42.810;23.214;2022-08-03T06:42:35;22.10;95.70
9237;DHT22;24579;42.810;23.214;2022-08-03T06:45:03;22.40;95.60
9237;DHT22;24579;42.810;23.214;2022-08-03T06:47:30;22.50;94.30
9237;DHT22;24579;42.810;23.214;2022-08-03T06:49:57;22.60;93.20
9237;DHT22;24579;42.810;23.214;2022-08-03T06:52:26;22.50;93.40
9237;DHT22;24579;42.810;23.214;2022-08-03T06:54:53;22.40;93.00
9237;DHT22;24579;42.810;23.214;2022-08-03T06:57:20;22.50;93.60
9237;DHT22;24579;42.810;23.214;2022-08-03T06:59:47;22.80;93.20
9237;DHT22;24579;42.810;23.214;2022-08-03T07:02:14;23.10;93.60
9237;DHT22;24579;42.810;23.214;2022-08-03T07:04:41;23.20;93.10
9237;DHT22;24579;42.810;23.214;2022-08-03T07:07:08;23.00;93.50
9237;DHT22;24579;42.810;23.214;2022-08-03T07:09:36;23.20;92.60
9237;DHT22;24579;42.810;23.214;2022-08-03T07:12:04;23.10;92.50
9237;DHT22;24579;42.810;23.214;2022-08-03T07:14:31;23.30;93.10
9237;DHT22;24579;42.810;23.214;2022-08-03T07:16:58;23.40;91.90
9237;DHT22;24579;42.810;23.214;2022-08-03T07:19:25;23.50;90.70
9237;DHT22;24579;42.810;23.214;2022-08-03T07:21:52;23.50;90.90
9237;DHT22;24579;42.810;23.214;2022-08-03T07:24:19;23.70;90.80
9237;DHT22;24579;42.810;23.214;2022-08-03T07:26:47;24.00;90.20
9237;DHT22;24579;42.810;23.214;2022-08-03T07:29:14;23.90;88.50
9237;DHT22;24579;42.810;23.214;2022-08-03T07:31:42;24.00;89.80
9237;DHT22;24579;42.810;23.214;2022-08-03T07:34:09;24.00;86.20
9237;DHT22;24579;42.810;23.214;2022-08-03T07:36:36;24.00;86.20
9237;DHT22;24579;42.810;23.214;2022-08-03T07:39:03;24.20;85.70
9237;DHT22;24579;42.810;23.214;2022-08-03T07:41:30;24.30;83.70
9237;DHT22;24579;42.810;23.214;2022-08-03T07:43:58;24.50;84.10
9237;DHT22;24579;42.810;23.214;2022-08-03T07:46:25;24.50;83.90
9237;DHT22;24579;42.810;23.214;2022-08-03T07:48:52;24.80;80.40
9237;DHT22;24579;42.810;23.214;2022-08-03T07:51:19;24.90;79.00
9237;DHT22;24579;42.810;23.214;2022-08-03T07:53:46;25.00;78.40
9237;DHT22;24579;42.810;23.214;2022-08-03T07:56:13;25.20;77.90
9237;DHT22;24579;42.810;23.214;2022-08-03T07:58:41;25.40;76.60
9237;DHT22;24579;42.810;23.214;2022-08-03T08:01:10;25.40;75.20
9237;DHT22;24579;42.810;23.214;2022-08-03T08:03:36;25.50;77.30
9237;DHT22;24579;42.810;23.214;2022-08-03T08:06:04;25.60;76.90
9237;DHT22;24579;42.810;23.214;2022-08-03T08:08:31;25.90;74.60
9237;DHT22;24579;42.810;23.214;2022-08-03T08:10:58;25.90;75.30
9237;DHT22;24579;42.810;23.214;2022-08-03T08:13:25;26.00;76.60
9237;DHT22;24579;42.810;23.214;2022-08-03T08:15:51;26.10;77.00
9237;DHT22;24579;42.810;23.214;2022-08-03T08:18:20;26.10;75.40
9237;DHT22;24579;42.810;23.214;2022-08-03T08:20:49;26.30;74.50
9237;DHT22;24579;42.810;23.214;2022-08-03T08:23:16;26.30;71.80
9237;DHT22;24579;42.810;23.214;2022-08-03T08:25:47;26.40;71.30
9237;DHT22;24579;42.810;23.214;2022-08-03T08:28:16;26.60;71.50
9237;DHT22;24579;42.810;23.214;2022-08-03T08:30:43;26.70;71.20
9237;DHT22;24579;42.810;23.214;2022-08-03T08:33:11;26.70;71.30
9237;DHT22;24579;42.810;23.214;2022-08-03T08:35:39;27.00;75.00
9237;DHT22;24579;42.810;23.214;2022-08-03T08:38:06;27.20;69.30
9237;DHT22;24579;42.810;23.214;2022-08-03T08:40:33;27.30;67.90
9237;DHT22;24579;42.810;23.214;2022-08-03T08:43:01;27.40;68.80
9237;DHT22;24579;42.810;23.214;2022-08-03T08:45:28;27.60;68.40
9237;DHT22;24579;42.810;23.214;2022-08-03T08:47:56;27.50;66.90
9237;DHT22;24579;42.810;23.214;2022-08-03T08:53:22;28.00;64.00
9237;DHT22;24579;42.810;23.214;2022-08-03T08:55:54;28.00;65.90
9237;DHT22;24579;42.810;23.214;2022-08-03T08:58:21;27.90;60.30
9237;DHT22;24579;42.810;23.214;2022-08-03T09:00:49;28.10;63.80
9237;DHT22;24579;42.810;23.214;2022-08-03T09:03:16;28.60;59.10
9237;DHT22;24579;42.810;23.214;2022-08-03T09:05:44;28.90;57.80
9237;DHT22;24579;42.810;23.214;2022-08-03T09:08:12;28.70;56.50
9237;DHT22;24579;42.810;23.214;2022-08-03T09:10:40;28.70;56.60
9237;DHT22;24579;42.810;23.214;2022-08-03T09:13:07;28.80;56.70
9237;DHT22;24579;42.810;23.214;2022-08-03T09:15:34;29.60;59.30
9237;DHT22;24579;42.810;23.214;2022-08-03T09:18:03;29.70;58.30
9237;DHT22;24579;42.810;23.214;2022-08-03T09:20:31;29.30;58.30
9237;DHT22;24579;42.810;23.214;2022-08-03T09:23:00;29.30;61.90
9237;DHT22;24579;42.810;23.214;2022-08-03T09:25:30;30.10;58.10
9237;DHT22;24579;42.810;23.214;2022-08-03T09:28:09;30.10;55.30
9237;DHT22;24579;42.810;23.214;2022-08-03T09:30:38;30.60;56.80
9237;DHT22;24579;42.810;23.214;2022-08-03T09:33:06;31.30;57.10
9237;DHT22;24579;42.810;23.214;2022-08-03T09:35:39;31.40;54.10
9237;DHT22;24579;42.810;23.214;2022-08-03T09:38:11;31.50;55.00
9237;DHT22;24579;42.810;23.214;2022-08-03T09:40:39;32.10;54.00
9237;DHT22;24579;42.810;23.214;2022-08-03T09:43:07;32.10;53.30
9237;DHT22;24579;42.810;23.214;2022-08-03T09:45:37;32.10;52.20
9237;DHT22;24579;42.810;23.214;2022-08-03T09:48:21;31.70;50.80
9237;DHT22;24579;42.810;23.214;2022-08-03T09:50:49;32.10;51.30
9237;DHT22;24579;42.810;23.214;2022-08-03T09:53:17;32.60;50.50
9237;DHT22;24579;42.810;23.214;2022-08-03T09:55:55;32.50;51.60
9237;DHT22;24579;42.810;23.214;2022-08-03T09:58:23;33.10;49.70
9237;DHT22;24579;42.810;23.214;2022-08-03T10:00:57;32.20;48.30
9237;DHT22;24579;42.810;23.214;2022-08-03T10:03:26;31.00;50.30
9237;DHT22;24579;42.810;23.214;2022-08-03T10:05:54;31.60;52.10
9237;DHT22;24579;42.810;23.214;2022-08-03T10:08:21;32.70;50.30
9237;DHT22;24579;42.810;23.214;2022-08-03T10:10:50;33.00;48.40
9237;DHT22;24579;42.810;23.214;2022-08-03T10:13:19;32.70;53.60
9237;DHT22;24579;42.810;23.214;2022-08-03T10:15:46;32.50;51.80
9237;DHT22;24579;42.810;23.214;2022-08-03T10:18:15;32.30;52.00
9237;DHT22;24579;42.810;23.214;2022-08-03T10:20:49;31.40;52.10
9237;DHT22;24579;42.810;23.214;2022-08-03T10:23:17;30.20;52.10
9237;DHT22;24579;42.810;23.214;2022-08-03T10:25:47;29.50;53.40
9237;DHT22;24579;42.810;23.214;2022-08-03T10:28:17;29.30;54.60
9237;DHT22;24579;42.810;23.214;2022-08-03T10:30:48;28.90;54.90
9237;DHT22;24579;42.810;23.214;2022-08-03T10:33:20;29.40;56.00
9237;DHT22;24579;42.810;23.214;2022-08-03T10:35:51;29.60;55.50
9237;DHT22;24579;42.810;23.214;2022-08-03T10:38:22;29.90;55.70
9237;DHT22;24579;42.810;23.214;2022-08-03T10:40:53;29.70;55.00
9237;DHT22;24579;42.810;23.214;2022-08-03T10:43:24;29.50;59.50
9237;DHT22;24579;42.810;23.214;2022-08-03T10:45:53;29.30;65.60
9237;DHT22;24579;42.810;23.214;2022-08-03T10:48:24;28.80;75.40
9237;DHT22;24579;42.810;23.214;2022-08-03T10:50:52;28.20;76.70
9237;DHT22;24579;42.810;23.214;2022-08-03T10:53:33;28.40;82.30
9237;DHT22;24579;42.810;23.214;2022-08-03T10:56:01;28.20;80.10
9237;DHT22;24579;42.810;23.214;2022-08-03T10:58:46;28.20;87.30
9237;DHT22;24579;42.810;23.214;2022-08-03T11:01:15;27.70;81.30
9237;DHT22;24579;42.810;23.214;2022-08-03T11:04:15;27.90;80.20
9237;DHT22;24579;42.810;23.214;2022-08-03T11:06:43;28.10;76.10
9237;DHT22;24579;42.810;23.214;2022-08-03T11:09:15;28.20;73.90
9237;DHT22;24579;42.810;23.214;2022-08-03T11:11:45;28.70;75.20
9237;DHT22;24579;42.810;23.214;2022-08-03T11:14:15;28.60;74.30
9237;DHT22;24579;42.810;23.214;2022-08-03T11:16:44;28.70;72.20
9237;DHT22;24579;42.810;23.214;2022-08-03T11:19:14;29.20;69.10
9237;DHT22;24579;42.810;23.214;2022-08-03T11:22:07;29.60;63.50
9237;DHT22;24579;42.810;23.214;2022-08-03T11:24:59;31.00;60.10
9237;DHT22;24579;42.810;23.214;2022-08-03T11:27:28;31.80;56.70
9237;DHT22;24579;42.810;23.214;2022-08-03T11:29:58;32.50;56.30
9237;DHT22;24579;42.810;23.214;2022-08-03T11:32:50;32.90;55.50
9237;DHT22;24579;42.810;23.214;2022-08-03T11:35:18;33.10;56.10
9237;DHT22;24579;42.810;23.214;2022-08-03T11:38:10;33.40;54.30
9237;DHT22;24579;42.810;23.214;2022-08-03T11:40:40;33.70;52.10
9237;DHT22;24579;42.810;23.214;2022-08-03T11:43:09;33.80;52.20
9237;DHT22;24579;42.810;23.214;2022-08-03T11:45:36;33.70;52.10
9237;DHT22;24579;42.810;23.214;2022-08-03T11:48:14;33.30;50.70
9237;DHT22;24579;42.810;23.214;2022-08-03T11:50:42;33.20;50.40
9237;DHT22;24579;42.810;23.214;2022-08-03T11:53:17;33.40;49.30
9237;DHT22;24579;42.810;23.214;2022-08-03T11:55:45;33.60;49.20
9237;DHT22;24579;42.810;23.214;2022-08-03T11:58:17;34.50;48.90
9237;DHT22;24579;42.810;23.214;2022-08-03T12:00:45;34.90;46.10
9237;DHT22;24579;42.810;23.214;2022-08-03T12:03:14;33.40;45.60
9237;DHT22;24579;42.810;23.214;2022-08-03T12:05:46;32.60;46.20
9237;DHT22;24579;42.810;23.214;2022-08-03T12:08:16;32.30;47.80
9237;DHT22;24579;42.810;23.214;2022-08-03T12:10:48;31.40;49.90
9237;DHT22;24579;42.810;23.214;2022-08-03T12:13:17;30.80;49.80
9237;DHT22;24579;42.810;23.214;2022-08-03T12:15:50;30.90;49.00
9237;DHT22;24579;42.810;23.214;2022-08-03T12:18:18;31.00;50.50
9237;DHT22;24579;42.810;23.214;2022-08-03T12:20:46;31.00;50.80
9237;DHT22;24579;42.810;23.214;2022-08-03T12:23:15;31.10;50.00
9237;DHT22;24579;42.810;23.214;2022-08-03T12:25:44;31.00;50.80
9237;DHT22;24579;42.810;23.214;2022-08-03T12:28:15;31.10;51.40
9237;DHT22;24579;42.810;23.214;2022-08-03T12:30:45;31.10;51.40
9237;DHT22;24579;42.810;23.214;2022-08-03T12:33:17;31.20;52.40
9237;DHT22;24579;42.810;23.214;2022-08-03T12:35:47;31.30;51.30
9237;DHT22;24579;42.810;23.214;2022-08-03T12:38:21;31.10;51.50
9237;DHT22;24579;42.810;23.214;2022-08-03T12:41:02;31.40;51.60
9237;DHT22;24579;42.810;23.214;2022-08-03T12:43:30;32.10;50.30
9237;DHT22;24579;42.810;23.214;2022-08-03T12:46:10;32.10;49.50
9237;DHT22;24579;42.810;23.214;2022-08-03T12:49:05;31.20;49.90
9237;DHT22;24579;42.810;23.214;2022-08-03T12:51:35;30.60;51.60
9237;DHT22;24579;42.810;23.214;2022-08-03T12:54:04;30.30;52.40
9237;DHT22;24579;42.810;23.214;2022-08-03T12:56:31;30.10;52.90
9237;DHT22;24579;42.810;23.214;2022-08-03T12:58:58;30.50;53.40
9237;DHT22;24579;42.810;23.214;2022-08-03T13:01:25;30.90;53.70
9237;DHT22;24579;42.810;23.214;2022-08-03T13:03:52;30.80;52.40
9237;DHT22;24579;42.810;23.214;2022-08-03T13:06:21;30.60;52.40
9237;DHT22;24579;42.810;23.214;2022-08-03T13:08:49;30.80;53.40
9237;DHT22;24579;42.810;23.214;2022-08-03T13:11:28;30.70;53.00
9237;DHT22;24579;42.810;23.214;2022-08-03T13:13:55;30.20;51.30
9237;DHT22;24579;42.810;23.214;2022-08-03T13:16:22;30.50;52.20
9237;DHT22;24579;42.810;23.214;2022-08-03T13:18:51;30.20;52.00
9237;DHT22;24579;42.810;23.214;2022-08-03T13:21:20;30.20;53.30
9237;DHT22;24579;42.810;23.214;2022-08-03T13:23:47;30.10;53.60
9237;DHT22;24579;42.810;23.214;2022-08-03T13:26:14;30.10;53.30
9237;DHT22;24579;42.810;23.214;2022-08-03T13:28:43;30.10;52.70
9237;DHT22;24579;42.810;23.214;2022-08-03T13:31:10;30.20;53.10
9237;DHT22;24579;42.810;23.214;2022-08-03T13:33:37;30.00;52.80
9237;DHT22;24579;42.810;23.214;2022-08-03T13:36:05;30.60;52.20
9237;DHT22;24579;42.810;23.214;2022-08-03T13:38:33;30.60;53.00
9237;DHT22;24579;42.810;23.214;2022-08-03T13:41:01;30.40;51.90
9237;DHT22;24579;42.810;23.214;2022-08-03T13:43:29;30.40;52.50
9237;DHT22;24579;42.810;23.214;2022-08-03T13:45:57;30.60;53.30
9237;DHT22;24579;42.810;23.214;2022-08-03T13:48:24;30.30;53.50
9237;DHT22;24579;42.810;23.214;2022-08-03T13:50:51;29.80;55.40
9237;DHT22;24579;42.810;23.214;2022-08-03T13:53:18;29.20;56.20
9237;DHT22;24579;42.810;23.214;2022-08-03T13:55:45;28.40;57.60
9237;DHT22;24579;42.810;23.214;2022-08-03T13:58:12;28.10;60.00
9237;DHT22;24579;42.810;23.214;2022-08-03T14:00:40;28.00;61.60
9237;DHT22;24579;42.810;23.214;2022-08-03T14:03:08;28.10;61.70
9237;DHT22;24579;42.810;23.214;2022-08-03T14:05:36;27.90;62.30
9237;DHT22;24579;42.810;23.214;2022-08-03T14:08:04;27.50;62.30
9237;DHT22;24579;42.810;23.214;2022-08-03T14:10:36;27.50;63.60
9237;DHT22;24579;42.810;23.214;2022-08-03T14:13:03;27.30;64.20
9237;DHT22;24579;42.810;23.214;2022-08-03T14:15:30;27.10;64.20
9237;DHT22;24579;42.810;23.214;2022-08-03T14:17:58;26.90;65.10
9237;DHT22;24579;42.810;23.214;2022-08-03T14:20:26;27.10;65.70
9237;DHT22;24579;42.810;23.214;2022-08-03T14:22:54;27.00;66.60
9237;DHT22;24579;42.810;23.214;2022-08-03T14:25:21;26.70;67.20
9237;DHT22;24579;42.810;23.214;2022-08-03T14:27:48;26.60;68.80
9237;DHT22;24579;42.810;23.214;2022-08-03T14:30:15;26.60;69.80
9237;DHT22;24579;42.810;23.214;2022-08-03T14:32:42;26.40;70.60
9237;DHT22;24579;42.810;23.214;2022-08-03T14:35:09;26.00;71.50
9237;DHT22;24579;42.810;23.214;2022-08-03T14:37:37;26.20;72.90
9237;DHT22;24579;42.810;23.214;2022-08-03T14:40:05;26.30;73.00
9237;DHT22;24579;42.810;23.214;2022-08-03T14:42:32;26.00;73.70
9237;DHT22;24579;42.810;23.214;2022-08-03T14:45:00;25.90;74.60
9237;DHT22;24579;42.810;23.214;2022-08-03T14:47:26;25.80;75.30
9237;DHT22;24579;42.810;23.214;2022-08-03T14:49:54;25.80;75.80
9237;DHT22;24579;42.810;23.214;2022-08-03T14:52:21;26.00;76.40
9237;DHT22;24579;42.810;23.214;2022-08-03T14:54:49;26.20;76.90
9237;DHT22;24579;42.810;23.214;2022-08-03T14:57:16;26.20;78.10
9237;DHT22;24579;42.810;23.214;2022-08-03T14:59:43;25.90;80.70
9237;DHT22;24579;42.810;23.214;2022-08-03T15:02:10;25.60;84.40
9237;DHT22;24579;42.810;23.214;2022-08-03T15:04:37;25.30;86.30
9237;DHT22;24579;42.810;23.214;2022-08-03T15:07:05;25.40;87.10
9237;DHT22;24579;42.810;23.214;2022-08-03T15:09:32;25.20;85.70
9237;DHT22;24579;42.810;23.214;2022-08-03T15:12:01;24.90;86.30
9237;DHT22;24579;42.810;23.214;2022-08-03T15:14:28;25.00;87.30
9237;DHT22;24579;42.810;23.214;2022-08-03T15:16:55;24.90;87.10
9237;DHT22;24579;42.810;23.214;2022-08-03T15:19:22;25.10;87.40
9237;DHT22;24579;42.810;23.214;2022-08-03T15:21:49;25.40;86.50
9237;DHT22;24579;42.810;23.214;2022-08-03T15:24:17;25.30;85.60
9237;DHT22;24579;42.810;23.214;2022-08-03T15:26:44;25.40;86.10
9237;DHT22;24579;42.810;23.214;2022-08-03T15:29:12;25.30;86.90
9237;DHT22;24579;42.810;23.214;2022-08-03T15:31:39;25.50;86.30
9237;DHT22;24579;42.810;23.214;2022-08-03T15:34:06;25.20;85.00
9237;DHT22;24579;42.810;23.214;2022-08-03T15:36:33;25.30;84.40
9237;DHT22;24579;42.810;23.214;2022-08-03T15:39:00;25.60;83.00
9237;DHT22;24579;42.810;23.214;2022-08-03T15:41:27;25.60;82.20
9237;DHT22;24579;42.810;23.214;2022-08-03T15:43:54;25.50;82.20
9237;DHT22;24579;42.810;23.214;2022-08-03T15:46:23;25.40;81.50
9237;DHT22;24579;42.810;23.214;2022-08-03T15:48:50;25.40;82.10
9237;DHT22;24579;42.810;23.214;2022-08-03T15:51:17;25.40;82.30